Time;durP1;ratioP1;P1;durP2;ratioP2;P2;SDS_P1;SDS_P2;PMS_P1;PMS_P2;Temp;Humidity;BMP_temperature;BMP_pressure;BME280_temperature;BME280_humidity;BME280_pressure;Samples;Min_cycle;Max_cycle;Signal;HPM_P1;HPM_P2
2023/01/10 00:00:28;;;;;;;12.85;2.13;;;;;;;;;;6338688;22;20058;-85
2023/01/10 00:02:54;;;;;;;11.40;1.92;;;;;;;;;;6340140;22;20089;-85
2023/01/10 00:05:20;;;;;;;12.52;2.50;;;;;;;;;;6339335;22;20554;-83
2023/01/10 00:07:47;;;;;;;22.23;2.17;;;;;;;;;;6310551;22;20906;-83
2023/01/10 00:10:13;;;;;;;7.78;1.80;;;;;;;;;;6339027;22;20046;-84
2023/01/10 00:15:25;;;;;;;15.50;2.33;;;;;;;;;;6340456;22;20415;-85
2023/01/10 00:17:51;;;;;;;21.77;2.50;;;;;;;;;;6336683;22;20569;-83
2023/01/10 00:20:18;;;;;;;11.60;2.47;;;;;;;;;;6339036;22;20495;-83
2023/01/10 00:22:44;;;;;;;13.48;1.95;;;;;;;;;;6337973;22;20094;-84
2023/01/10 00:25:11;;;;;;;11.07;2.13;;;;;;;;;;6339900;22;20097;-85
2023/01/10 00:27:38;;;;;;;11.75;2.05;;;;;;;;;;6310730;22;20039;-84
2023/01/10 00:30:22;;;;;;;14.82;2.00;;;;;;;;;;6310688;22;20027;-84
2023/01/10 00:32:49;;;;;;;10.40;2.30;;;;;;;;;;6310539;22;20316;-84
2023/01/10 00:35:15;;;;;;;14.43;2.63;;;;;;;;;;6338075;22;20567;-85
2023/01/10 00:37:42;;;;;;;14.20;2.22;;;;;;;;;;6310827;22;20110;-84
2023/01/10 00:40:10;;;;;;;17.20;2.42;;;;;;;;;;6338703;22;20559;-84
2023/01/10 00:45:23;;;;;;;12.35;2.38;;;;;;;;;;6338215;22;20023;-85
2023/01/10 00:47:50;;;;;;;16.67;2.03;;;;;;;;;;6309866;22;20034;-84
2023/01/10 00:50:17;;;;;;;10.43;2.05;;;;;;;;;;6337355;22;20035;-84
2023/01/10 00:52:44;;;;;;;15.85;2.08;;;;;;;;;;6310158;22;20480;-84
2023/01/10 00:55:10;;;;;;;10.38;2.00;;;;;;;;;;6308074;22;20451;-85
2023/01/10 00:57:37;;;;;;;8.80;1.85;;;;;;;;;;6338734;22;20055;-83
2023/01/10 01:00:06;;;;;;;15.52;2.20;;;;;;;;;;6339026;22;20035;-85
2023/01/10 01:02:32;;;;;;;17.73;2.35;;;;;;;;;;6311449;22;20117;-84
2023/01/10 01:04:59;;;;;;;12.75;2.00;;;;;;;;;;6338738;22;20030;-84
2023/01/10 01:07:25;;;;;;;11.63;1.80;;;;;;;;;;6338047;22;20521;-85
2023/01/10 01:12:37;;;;;;;11.60;1.83;;;;;;;;;;6338994;22;20576;-85
2023/01/10 01:15:03;;;;;;;13.90;2.10;;;;;;;;;;6338384;22;20126;-84
2023/01/10 01:17:30;;;;;;;13.15;1.90;;;;;;;;;;6338684;22;20023;-84
2023/01/10 01:19:56;;;;;;;14.60;2.05;;;;;;;;;;6338825;22;20019;-85
2023/01/10 01:22:22;;;;;;;16.13;2.40;;;;;;;;;;6338923;22;20031;-84
2023/01/10 01:24:49;;;;;;;15.07;2.45;;;;;;;;;;6337156;22;20027;-84
2023/01/10 01:27:15;;;;;;;10.38;1.77;;;;;;;;;;6337789;22;20272;-85
2023/01/10 01:29:42;;;;;;;17.17;2.38;;;;;;;;;;6339068;22;20027;-84
2023/01/10 01:32:09;;;;;;;11.32;2.10;;;;;;;;;;6310247;22;20023;-85
2023/01/10 01:34:35;;;;;;;13.75;2.53;;;;;;;;;;6337565;22;20062;-84
2023/01/10 01:37:01;;;;;;;14.38;1.75;;;;;;;;;;6337638;22;20028;-83
2023/01/10 01:39:28;;;;;;;9.20;2.17;;;;;;;;;;6338817;22;20049;-84
2023/01/10 01:41:57;;;;;;;19.20;2.08;;;;;;;;;;6337750;22;20059;-85
2023/01/10 01:44:28;;;;;;;11.57;1.73;;;;;;;;;;6336500;22;20538;-84
2023/01/10 01:46:54;;;;;;;;;;;;;;;;;;6338455;22;20360;-84
2023/01/10 01:49:23;;;;;;;17.65;2.17;;;;;;;;;;6336553;22;47031;-84
2023/01/10 01:51:52;;;;;;;15.90;2.67;;;;;;;;;;6338143;22;20044;-84
2023/01/10 01:54:18;;;;;;;14.60;2.70;;;;;;;;;;6337356;22;20067;-84
2023/01/10 01:56:50;;;;;;;13.63;1.90;;;;;;;;;;6336335;22;20023;-84
2023/01/10 01:59:19;;;;;;;16.13;2.13;;;;;;;;;;6310668;22;20476;-84
2023/01/10 02:01:48;;;;;;;13.88;2.35;;;;;;;;;;6337312;22;20081;-84
2023/01/10 02:04:17;;;;;;;18.08;2.05;;;;;;;;;;6337476;22;20034;-84
2023/01/10 02:06:44;;;;;;;14.70;2.10;;;;;;;;;;6337628;22;20030;-85
2023/01/10 02:09:26;;;;;;;16.17;1.98;;;;;;;;;;6309687;22;20027;-85
2023/01/10 02:11:53;;;;;;;16.45;1.83;;;;;;;;;;6338018;22;20033;-84
2023/01/10 02:14:20;;;;;;;11.48;1.90;;;;;;;;;;6336212;22;20102;-83
2023/01/10 02:16:46;;;;;;;13.50;2.25;;;;;;;;;;6336850;22;20093;-83
2023/01/10 02:19:22;;;;;;;11.98;2.33;;;;;;;;;;6337514;22;20027;-84
2023/01/10 02:21:49;;;;;;;21.02;2.35;;;;;;;;;;6336350;22;20023;-83
2023/01/10 02:24:30;;;;;;;12.45;1.77;;;;;;;;;;6336309;22;20050;-85
2023/01/10 02:27:09;;;;;;;11.32;2.63;;;;;;;;;;6336573;22;20034;-84
2023/01/10 02:29:35;;;;;;;20.75;2.22;;;;;;;;;;6309804;22;20085;-84
2023/01/10 02:32:21;;;;;;;19.58;2.50;;;;;;;;;;6336827;22;20030;-84
2023/01/10 02:35:07;;;;;;;11.40;2.05;;;;;;;;;;6335796;22;20059;-84
2023/01/10 02:37:59;;;;;;;16.08;2.30;;;;;;;;;;6308053;22;20019;-83
2023/01/10 02:40:35;;;;;;;17.08;2.13;;;;;;;;;;6287566;22;20047;-85
2023/01/10 02:43:05;;;;;;;20.13;2.20;;;;;;;;;;6336448;22;20059;-85
2023/01/10 02:45:45;;;;;;;15.10;2.42;;;;;;;;;;6335440;22;20094;-84
2023/01/10 02:48:11;;;;;;;19.27;1.90;;;;;;;;;;6336563;22;20485;-83
2023/01/10 02:50:40;;;;;;;24.38;3.05;;;;;;;;;;6336339;22;20024;-84
2023/01/10 02:53:10;;;;;;;19.63;2.00;;;;;;;;;;6336036;22;20054;-84
2023/01/10 02:55:39;;;;;;;13.73;2.38;;;;;;;;;;6335747;22;20534;-83
2023/01/10 02:58:23;;;;;;;15.88;2.00;;;;;;;;;;6335805;22;20058;-84
2023/01/10 03:01:10;;;;;;;14.95;2.67;;;;;;;;;;6335896;22;20023;-84
2023/01/10 03:03:40;;;;;;;16.15;2.10;;;;;;;;;;6314352;22;20027;-85
2023/01/10 03:06:06;;;;;;;17.35;1.98;;;;;;;;;;6335667;22;20084;-84
2023/01/10 03:08:36;;;;;;;16.90;2.10;;;;;;;;;;6307319;22;20020;-83
2023/01/10 03:11:07;;;;;;;15.93;1.80;;;;;;;;;;6336713;22;20020;-83
2023/01/10 03:13:49;;;;;;;9.95;1.90;;;;;;;;;;6335637;22;20081;-83
2023/01/10 03:16:17;;;;;;;17.45;1.98;;;;;;;;;;6336000;22;20027;-84
2023/01/10 03:18:47;;;;;;;11.20;2.63;;;;;;;;;;6335528;22;20027;-84
2023/01/10 03:21:15;;;;;;;24.80;3.47;;;;;;;;;;6306735;22;20030;-83
2023/01/10 03:23:41;;;;;;;15.27;2.03;;;;;;;;;;6335659;22;20035;-83
2023/01/10 03:26:09;;;;;;;9.18;1.80;;;;;;;;;;6335665;22;20045;-83
2023/01/10 03:28:42;;;;;;;17.15;2.58;;;;;;;;;;6335028;22;20027;-84
2023/01/10 03:31:12;;;;;;;15.35;1.90;;;;;;;;;;6332861;22;20126;-84
2023/01/10 03:33:40;;;;;;;17.30;1.83;;;;;;;;;;6333481;22;20098;-84
2023/01/10 03:36:07;;;;;;;9.18;1.98;;;;;;;;;;6335674;22;20027;-83
2023/01/10 03:38:54;;;;;;;15.95;1.85;;;;;;;;;;6307821;22;20065;-84
2023/01/10 03:41:25;;;;;;;17.23;2.33;;;;;;;;;;6307354;22;20077;-84
2023/01/10 03:46:40;;;;;;;11.73;2.30;;;;;;;;;;6332853;22;45386;-83
2023/01/10 03:49:08;;;;;;;16.52;2.05;;;;;;;;;;6335393;22;20811;-83
2023/01/10 03:51:36;;;;;;;9.45;1.98;;;;;;;;;;6307154;22;20031;-83
2023/01/10 03:54:03;;;;;;;16.02;2.30;;;;;;;;;;6334403;22;20019;-83
2023/01/10 03:56:29;;;;;;;19.80;1.90;;;;;;;;;;6334312;22;20029;-83
2023/01/10 03:58:55;;;;;;;18.42;2.00;;;;;;;;;;6333139;22;20103;-84
2023/01/10 04:01:22;;;;;;;22.15;3.78;;;;;;;;;;6334600;22;20031;-83
2023/01/10 04:03:48;;;;;;;15.35;2.58;;;;;;;;;;6335752;22;20496;-84
2023/01/10 04:06:16;;;;;;;23.23;2.85;;;;;;;;;;6306817;22;20022;-83
2023/01/10 04:08:42;;;;;;;14.43;2.67;;;;;;;;;;6306378;22;20019;-83
2023/01/10 04:11:09;;;;;;;15.23;1.95;;;;;;;;;;6306157;22;20030;-84
2023/01/10 04:13:36;;;;;;;11.73;2.00;;;;;;;;;;6306833;22;20118;-83
2023/01/10 04:16:03;;;;;;;13.07;1.95;;;;;;;;;;6334727;22;20023;-83
2023/01/10 04:18:32;;;;;;;14.38;2.33;;;;;;;;;;6334112;22;20096;-84
2023/01/10 04:21:00;;;;;;;23.13;2.60;;;;;;;;;;6333481;22;20025;-84
2023/01/10 04:23:27;;;;;;;14.77;2.50;;;;;;;;;;6332797;22;20041;-83
2023/01/10 04:25:53;;;;;;;24.52;2.88;;;;;;;;;;6334797;22;20491;-84
2023/01/10 04:28:19;;;;;;;15.77;2.42;;;;;;;;;;6334768;22;20026;-84
2023/01/10 04:30:48;;;;;;;17.33;2.78;;;;;;;;;;6334692;22;20023;-85
2023/01/10 04:33:14;;;;;;;14.38;2.60;;;;;;;;;;6335475;22;20027;-83
2023/01/10 04:35:45;;;;;;;15.65;2.47;;;;;;;;;;6335873;22;20019;-83
2023/01/10 04:38:12;;;;;;;18.10;2.42;;;;;;;;;;6335429;22;20122;-84
2023/01/10 04:40:38;;;;;;;19.23;2.67;;;;;;;;;;6334550;22;20029;-83
2023/01/10 04:43:04;;;;;;;13.82;2.22;;;;;;;;;;6336150;22;20019;-84
2023/01/10 04:45:31;;;;;;;20.95;2.35;;;;;;;;;;6336241;22;20110;-84
2023/01/10 04:47:58;;;;;;;8.90;2.08;;;;;;;;;;6335823;22;20503;-84
2023/01/10 04:50:25;;;;;;;20.90;2.58;;;;;;;;;;6333695;22;20031;-84
2023/01/10 04:52:52;;;;;;;16.83;2.50;;;;;;;;;;6307871;22;20204;-83
2023/01/10 04:55:18;;;;;;;20.00;2.95;;;;;;;;;;6339122;22;20027;-84
2023/01/10 04:57:45;;;;;;;16.40;3.00;;;;;;;;;;6335688;22;20038;-84
2023/01/10 05:00:11;;;;;;;15.75;2.50;;;;;;;;;;6334815;22;20118;-85
2023/01/10 05:02:44;;;;;;;16.08;2.97;;;;;;;;;;6308972;22;20573;-84
2023/01/10 05:05:11;;;;;;;18.58;2.38;;;;;;;;;;6335583;22;20031;-83
2023/01/10 05:07:38;;;;;;;21.40;2.53;;;;;;;;;;6335475;22;20108;-83
2023/01/10 05:10:05;;;;;;;18.27;2.40;;;;;;;;;;6335561;22;20023;-84
2023/01/10 05:12:31;;;;;;;15.10;2.63;;;;;;;;;;6334905;22;20015;-84
2023/01/10 05:14:58;;;;;;;19.23;3.05;;;;;;;;;;6308311;22;20019;-84
2023/01/10 05:17:25;;;;;;;12.85;1.92;;;;;;;;;;6334960;22;20129;-84
2023/01/10 05:19:51;;;;;;;21.33;2.80;;;;;;;;;;6335566;22;20479;-83
2023/01/10 05:22:18;;;;;;;19.65;2.58;;;;;;;;;;6335662;22;20034;-83
2023/01/10 05:24:47;;;;;;;13.90;2.28;;;;;;;;;;6334064;22;20027;-83
2023/01/10 05:27:13;;;;;;;15.50;2.75;;;;;;;;;;6335329;22;20029;-83
2023/01/10 05:29:40;;;;;;;17.73;2.83;;;;;;;;;;6308285;22;20034;-83
2023/01/10 05:32:06;;;;;;;14.20;2.38;;;;;;;;;;6337449;22;20489;-84
2023/01/10 05:34:35;;;;;;;22.23;3.53;;;;;;;;;;6334684;22;20102;-84
2023/01/10 05:37:04;;;;;;;21.40;2.95;;;;;;;;;;6307163;22;20498;-84
2023/01/10 05:39:30;;;;;;;14.52;2.35;;;;;;;;;;6333373;22;20372;-84
2023/01/10 05:41:56;;;;;;;19.30;2.92;;;;;;;;;;6333506;22;20027;-84
2023/01/10 05:44:23;;;;;;;20.50;2.72;;;;;;;;;;6333413;22;20053;-83
2023/01/10 05:46:49;;;;;;;17.25;2.90;;;;;;;;;;6337345;22;20933;-84
2023/01/10 05:49:16;;;;;;;20.00;3.05;;;;;;;;;;6335546;22;20037;-83
2023/01/10 05:51:45;;;;;;;14.05;2.20;;;;;;;;;;6334980;22;20034;-84
2023/01/10 05:54:20;;;;;;;18.50;3.17;;;;;;;;;;6307900;22;20033;-83
2023/01/10 05:57:28;;;;;;;;;;;;;;;;;;;;;
2023/01/10 06:00:25;;;;;;;18.40;3.05;;;;;;;;;;6336260;22;20054;-82
2023/01/10 06:02:55;;;;;;;25.35;2.97;;;;;;;;;;6335371;22;20027;-83
2023/01/10 06:05:22;;;;;;;14.65;1.98;;;;;;;;;;6336248;22;20035;-83
2023/01/10 06:07:48;;;;;;;20.15;3.17;;;;;;;;;;6335388;22;20349;-84
2023/01/10 06:10:15;;;;;;;16.33;2.90;;;;;;;;;;6335277;22;20069;-84
2023/01/10 06:12:42;;;;;;;25.00;3.22;;;;;;;;;;6307598;22;20449;-84
2023/01/10 06:15:09;;;;;;;20.00;3.10;;;;;;;;;;6335789;22;20073;-84
2023/01/10 06:17:35;;;;;;;26.10;3.03;;;;;;;;;;6307385;22;20023;-84
2023/01/10 06:20:02;;;;;;;29.58;3.95;;;;;;;;;;6336011;22;20074;-83
2023/01/10 06:22:28;;;;;;;14.45;2.65;;;;;;;;;;6307345;22;20082;-82
2023/01/10 06:24:54;;;;;;;25.88;3.88;;;;;;;;;;6334485;22;20065;-82
2023/01/10 06:27:21;;;;;;;21.65;3.55;;;;;;;;;;6335134;22;20483;-82
2023/01/10 06:30:04;;;;;;;21.42;4.45;;;;;;;;;;6335245;22;20499;-82
2023/01/10 06:33:05;;;;;;;19.25;4.07;;;;;;;;;;6335002;22;20034;-84
2023/01/10 06:39:16;;;;;;;;;;;;;;;;;;6314917;22;20035;-82
2023/01/10 06:41:44;;;;;;;27.05;5.10;;;;;;;;;;6334366;22;42967;-82
2023/01/10 06:44:11;;;;;;;36.28;7.03;;;;;;;;;;6334923;22;20487;-81
2023/01/10 06:46:37;;;;;;;17.38;5.25;;;;;;;;;;6335303;22;20027;-82
2023/01/10 06:49:04;;;;;;;26.75;6.35;;;;;;;;;;6335499;22;20289;-82
2023/01/10 06:51:31;;;;;;;23.33;3.50;;;;;;;;;;6306969;22;20027;-82
2023/01/10 06:53:57;;;;;;;17.55;3.45;;;;;;;;;;6332733;22;20099;-83
2023/01/10 06:56:24;;;;;;;25.02;4.00;;;;;;;;;;6335352;22;20524;-82
2023/01/10 06:58:50;;;;;;;19.77;3.58;;;;;;;;;;6335334;22;20859;-82
2023/01/10 07:01:18;;;;;;;18.25;3.72;;;;;;;;;;6334489;22;20015;-82
2023/01/10 07:03:45;;;;;;;19.38;3.28;;;;;;;;;;6333695;22;20025;-82
2023/01/10 07:06:12;;;;;;;20.30;3.28;;;;;;;;;;6334678;22;20033;-82
2023/01/10 07:08:42;;;;;;;26.63;4.18;;;;;;;;;;6336567;22;20027;-82
2023/01/10 07:11:08;;;;;;;18.38;2.50;;;;;;;;;;6334473;22;20218;-81
2023/01/10 07:13:35;;;;;;;20.65;3.72;;;;;;;;;;6307659;22;20444;-82
2023/01/10 07:16:02;;;;;;;20.13;3.45;;;;;;;;;;6334441;22;20027;-82
2023/01/10 07:18:29;;;;;;;19.42;3.17;;;;;;;;;;6336768;22;20033;-82
2023/01/10 07:20:55;;;;;;;19.48;3.10;;;;;;;;;;6309167;22;20024;-82
2023/01/10 07:23:22;;;;;;;20.02;3.42;;;;;;;;;;6334653;22;20376;-83
2023/01/10 07:25:48;;;;;;;24.48;3.25;;;;;;;;;;6306886;22;20459;-82
2023/01/10 07:28:15;;;;;;;26.50;4.47;;;;;;;;;;6334928;22;20130;-82
2023/01/10 07:30:41;;;;;;;24.02;4.25;;;;;;;;;;6334807;22;20026;-82
2023/01/10 07:33:08;;;;;;;20.73;4.05;;;;;;;;;;6335773;22;20597;-83
2023/01/10 07:35:34;;;;;;;24.88;4.25;;;;;;;;;;6334563;22;20045;-82
2023/01/10 07:38:02;;;;;;;27.55;5.18;;;;;;;;;;6335650;22;20324;-81
2023/01/10 07:40:28;;;;;;;16.42;3.47;;;;;;;;;;6334012;22;20049;-82
2023/01/10 07:42:56;;;;;;;22.25;4.55;;;;;;;;;;6308391;22;20019;-81
2023/01/10 07:45:22;;;;;;;23.98;4.60;;;;;;;;;;6310475;22;20027;-82
2023/01/10 07:47:49;;;;;;;20.50;4.72;;;;;;;;;;6336278;22;20035;-81
2023/01/10 07:50:16;;;;;;;24.35;5.13;;;;;;;;;;6336058;22;20306;-83
2023/01/10 07:52:43;;;;;;;26.45;4.20;;;;;;;;;;6338592;22;20411;-84
2023/01/10 07:55:09;;;;;;;27.98;5.32;;;;;;;;;;6340059;22;20034;-82
2023/01/10 07:57:36;;;;;;;26.65;5.10;;;;;;;;;;6309154;22;20019;-83
2023/01/10 08:00:02;;;;;;;24.92;4.68;;;;;;;;;;6336781;22;20050;-84
2023/01/10 08:02:29;;;;;;;20.45;4.57;;;;;;;;;;6308362;22;20088;-83
2023/01/10 08:04:55;;;;;;;22.48;5.20;;;;;;;;;;6336208;22;20487;-82
2023/01/10 08:07:22;;;;;;;15.30;4.88;;;;;;;;;;6336347;22;20592;-82
2023/01/10 08:09:49;;;;;;;21.10;4.22;;;;;;;;;;6337126;22;20106;-81
2023/01/10 08:12:15;;;;;;;24.33;4.35;;;;;;;;;;6336395;22;20033;-82
2023/01/10 08:14:42;;;;;;;20.88;4.93;;;;;;;;;;6310086;22;20114;-81
2023/01/10 08:17:09;;;;;;;24.00;4.93;;;;;;;;;;6339379;22;20022;-82
2023/01/10 08:19:35;;;;;;;21.05;4.13;;;;;;;;;;6309597;22;20544;-81
2023/01/10 08:22:02;;;;;;;23.80;5.68;;;;;;;;;;6339426;22;20019;-81
2023/01/10 08:24:28;;;;;;;26.27;5.15;;;;;;;;;;6312007;22;20023;-81
2023/01/10 08:26:57;;;;;;;21.33;4.22;;;;;;;;;;6312359;22;20020;-80
2023/01/10 08:29:23;;;;;;;21.77;3.97;;;;;;;;;;6309050;22;20023;-83
2023/01/10 08:31:50;;;;;;;21.10;4.72;;;;;;;;;;6334766;22;20199;-83
2023/01/10 08:34:22;;;;;;;21.98;4.80;;;;;;;;;;6333840;22;20470;-86
2023/01/10 08:36:55;;;;;;;23.67;4.80;;;;;;;;;;6306285;22;20019;-86
2023/01/10 08:40:10;;;;;;;27.75;4.35;;;;;;;;;;6331748;22;20095;-86
2023/01/10 08:43:01;;;;;;;23.55;4.05;;;;;;;;;;6330526;22;20023;-86
2023/01/10 08:45:28;;;;;;;26.17;4.75;;;;;;;;;;6334699;22;20033;-86
2023/01/10 08:47:55;;;;;;;13.27;3.65;;;;;;;;;;6306627;22;20058;-86
2023/01/10 08:50:21;;;;;;;19.40;3.70;;;;;;;;;;6333339;22;20019;-86
2023/01/10 08:52:49;;;;;;;25.98;4.47;;;;;;;;;;6332874;22;20038;-86
2023/01/10 08:55:16;;;;;;;27.33;4.03;;;;;;;;;;6334064;22;20058;-84
2023/01/10 08:57:45;;;;;;;24.30;4.00;;;;;;;;;;6335619;22;20069;-84
2023/01/10 09:00:21;;;;;;;16.50;3.85;;;;;;;;;;6334737;22;20027;-85
2023/01/10 09:02:51;;;;;;;23.52;4.40;;;;;;;;;;6307486;22;20073;-86
2023/01/10 09:05:18;;;;;;;24.17;4.80;;;;;;;;;;6339727;22;20023;-87
2023/01/10 09:07:59;;;;;;;20.27;3.88;;;;;;;;;;6310674;22;20034;-85
2023/01/10 09:10:45;;;;;;;25.55;4.00;;;;;;;;;;6339604;22;20023;-87
2023/01/10 09:13:11;;;;;;;20.90;4.85;;;;;;;;;;6340336;22;20031;-82
2023/01/10 09:15:38;;;;;;;20.52;3.92;;;;;;;;;;6341630;22;20023;-83
2023/01/10 09:18:07;;;;;;;23.60;4.50;;;;;;;;;;6342879;22;20029;-86
2023/01/10 09:20:35;;;;;;;28.42;3.63;;;;;;;;;;6343712;22;20029;-82
2023/01/10 09:23:16;;;;;;;18.67;4.68;;;;;;;;;;6315161;22;20019;-85
2023/01/10 09:25:47;;;;;;;20.02;4.43;;;;;;;;;;6316883;22;20093;-84
2023/01/10 09:28:23;;;;;;;21.13;4.40;;;;;;;;;;6340718;22;20027;-84
2023/01/10 09:31:07;;;;;;;17.30;6.03;;;;;;;;;;6343956;22;20023;-85
2023/01/10 09:33:35;;;;;;;24.02;4.47;;;;;;;;;;6345151;22;20023;-79
2023/01/10 09:36:12;;;;;;;22.95;4.47;;;;;;;;;;6342726;22;20019;-82
2023/01/10 09:38:42;;;;;;;26.65;4.28;;;;;;;;;;6317419;22;20015;-85
2023/01/10 09:41:15;;;;;;;16.52;3.35;;;;;;;;;;6341960;22;20087;-83
2023/01/10 09:43:48;;;;;;;21.48;3.65;;;;;;;;;;6343363;22;20015;-85
2023/01/10 09:46:38;;;;;;;29.20;3.35;;;;;;;;;;6342299;22;20016;-87
2023/01/10 09:49:13;;;;;;;19.10;4.47;;;;;;;;;;6320168;22;20023;-86
2023/01/10 09:51:41;;;;;;;22.60;3.58;;;;;;;;;;6337290;22;20023;-86
2023/01/10 09:54:22;;;;;;;24.27;4.13;;;;;;;;;;6335572;22;20427;-84
2023/01/10 09:56:48;;;;;;;16.48;4.60;;;;;;;;;;6308960;22;20027;-85
2023/01/10 09:59:25;;;;;;;22.48;5.35;;;;;;;;;;6307101;22;20098;-87
2023/01/10 10:01:58;;;;;;;24.33;4.20;;;;;;;;;;6307174;22;20026;-85
2023/01/10 10:04:34;;;;;;;16.77;3.08;;;;;;;;;;6335066;22;20035;-86
2023/01/10 10:07:01;;;;;;;27.95;3.55;;;;;;;;;;6335870;22;20106;-86
2023/01/10 10:09:29;;;;;;;25.42;3.45;;;;;;;;;;6307621;22;20031;-86
2023/01/10 10:12:16;;;;;;;21.70;3.00;;;;;;;;;;6335689;22;20736;-86
2023/01/10 10:14:48;;;;;;;19.95;4.20;;;;;;;;;;6297161;22;20027;-85
2023/01/10 10:17:26;;;;;;;17.05;2.78;;;;;;;;;;6334647;22;20027;-86
2023/01/10 10:20:04;;;;;;;19.67;3.30;;;;;;;;;;6336187;22;20024;-86
2023/01/10 10:22:34;;;;;;;21.98;3.15;;;;;;;;;;6334384;22;20028;-85
2023/01/10 10:25:23;;;;;;;21.60;4.00;;;;;;;;;;6335178;22;20102;-85
2023/01/10 10:28:16;;;;;;;24.77;3.67;;;;;;;;;;6334346;22;20030;-88
2023/01/10 10:30:54;;;;;;;22.85;3.10;;;;;;;;;;6306837;22;20468;-88
2023/01/10 10:33:20;;;;;;;26.05;3.50;;;;;;;;;;6335462;22;20027;-86
2023/01/10 10:35:53;;;;;;;20.48;3.45;;;;;;;;;;6334579;22;20506;-86
2023/01/10 10:38:32;;;;;;;19.85;3.33;;;;;;;;;;6333688;22;20085;-86
2023/01/10 10:41:01;;;;;;;13.70;3.15;;;;;;;;;;6307925;22;20459;-88
2023/01/10 10:43:44;;;;;;;20.85;3.97;;;;;;;;;;6332241;22;20476;-87
2023/01/10 10:46:16;;;;;;;19.45;3.00;;;;;;;;;;6335200;22;20029;-86
2023/01/10 10:48:59;;;;;;;21.15;3.17;;;;;;;;;;6335213;22;20023;-87
2023/01/10 10:51:41;;;;;;;23.13;3.25;;;;;;;;;;6308410;22;20487;-87
2023/01/10 10:54:11;;;;;;;19.25;3.45;;;;;;;;;;6335256;22;20030;-87
2023/01/10 10:56:38;;;;;;;17.42;3.35;;;;;;;;;;6335202;22;20108;-86
2023/01/10 10:59:06;;;;;;;21.90;3.92;;;;;;;;;;6337009;22;20031;-86
2023/01/10 11:01:45;;;;;;;15.65;3.03;;;;;;;;;;6335935;22;20062;-85
2023/01/10 11:04:22;;;;;;;19.52;3.28;;;;;;;;;;6307300;22;20583;-87
2023/01/10 11:06:52;;;;;;;19.02;3.10;;;;;;;;;;6335125;22;20046;-87
2023/01/10 11:09:31;;;;;;;21.05;2.97;;;;;;;;;;6335636;22;20023;-86
2023/01/10 11:11:58;;;;;;;18.80;3.55;;;;;;;;;;6308290;22;20034;-86
2023/01/10 11:14:42;;;;;;;18.48;2.88;;;;;;;;;;6307355;22;20030;-87
2023/01/10 11:17:19;;;;;;;14.70;3.10;;;;;;;;;;6307005;22;20475;-87
2023/01/10 11:19:54;;;;;;;22.15;2.55;;;;;;;;;;6307722;22;20068;-87
2023/01/10 11:22:20;;;;;;;20.40;3.13;;;;;;;;;;6334786;22;20027;-87
2023/01/10 11:24:51;;;;;;;16.75;2.97;;;;;;;;;;6333851;22;20458;-87
2023/01/10 11:27:20;;;;;;;17.20;2.40;;;;;;;;;;6307924;22;20029;-89
2023/01/10 11:29:48;;;;;;;18.27;3.08;;;;;;;;;;6333425;22;20031;-84
2023/01/10 11:32:18;;;;;;;13.30;3.05;;;;;;;;;;6307759;22;20031;-87
2023/01/10 11:35:11;;;;;;;14.35;2.42;;;;;;;;;;6335305;22;20456;-86
2023/01/10 11:37:37;;;;;;;23.55;3.80;;;;;;;;;;6328947;22;20043;-86
2023/01/10 11:40:24;;;;;;;17.92;3.15;;;;;;;;;;6333923;22;20031;-86
2023/01/10 11:42:53;;;;;;;18.02;2.85;;;;;;;;;;6334084;22;20126;-89
2023/01/10 11:45:21;;;;;;;20.00;2.75;;;;;;;;;;6307225;22;20097;-88
2023/01/10 11:47:47;;;;;;;15.82;2.65;;;;;;;;;;6334139;22;20085;-86
2023/01/10 11:50:23;;;;;;;23.80;3.50;;;;;;;;;;6335422;22;20027;-86
2023/01/10 11:52:49;;;;;;;24.20;3.58;;;;;;;;;;6333469;22;20616;-86
2023/01/10 11:55:26;;;;;;;14.68;2.38;;;;;;;;;;6335011;22;20102;-86
2023/01/10 11:58:01;;;;;;;17.60;2.55;;;;;;;;;;6307466;22;20585;-86
2023/01/10 12:00:33;;;;;;;13.32;2.10;;;;;;;;;;6334905;22;20077;-86
2023/01/10 12:03:03;;;;;;;11.88;2.33;;;;;;;;;;6333607;22;20030;-85
2023/01/10 12:05:30;;;;;;;20.30;2.97;;;;;;;;;;6334887;22;20301;-86
2023/01/10 12:07:58;;;;;;;13.70;3.03;;;;;;;;;;6334215;22;20240;-86
2023/01/10 12:10:26;;;;;;;18.33;3.13;;;;;;;;;;6331939;22;20019;-87
2023/01/10 12:12:54;;;;;;;17.52;2.60;;;;;;;;;;6308163;22;20031;-85
2023/01/10 12:15:20;;;;;;;18.88;3.08;;;;;;;;;;6333653;22;20027;-85
2023/01/10 12:17:47;;;;;;;15.80;2.50;;;;;;;;;;6335058;22;20029;-84
2023/01/10 12:20:14;;;;;;;17.70;2.88;;;;;;;;;;6333651;22;20031;-84
2023/01/10 12:22:41;;;;;;;18.52;2.67;;;;;;;;;;6333046;22;20025;-85
2023/01/10 12:25:21;;;;;;;18.52;3.70;;;;;;;;;;6335194;22;20027;-83
2023/01/10 12:27:51;;;;;;;17.85;2.30;;;;;;;;;;6333554;22;20030;-86
2023/01/10 12:30:32;;;;;;;13.35;2.92;;;;;;;;;;6334928;22;20027;-83
2023/01/10 12:32:58;;;;;;;;;;;;;;;;;;6336049;22;20035;-85
2023/01/10 12:35:45;;;;;;;15.18;2.95;;;;;;;;;;6334191;22;45464;-86
2023/01/10 12:39:01;;;;;;;20.52;2.83;;;;;;;;;;6335274;22;20565;-85
2023/01/10 12:44:09;;;;;;;18.65;2.47;;;;;;;;;;6335956;22;20027;-84
2023/01/10 12:44:13;;;;;;;20.58;3.30;;;;;;;;;;6334748;22;20011;-85
2023/01/10 12:46:48;;;;;;;9.45;2.30;;;;;;;;;;6306625;22;20077;-85
2023/01/10 12:49:41;;;;;;;11.95;2.47;;;;;;;;;;6309880;22;20031;-86
2023/01/10 12:52:17;;;;;;;20.52;2.97;;;;;;;;;;6334571;22;20782;-85
2023/01/10 12:54:44;;;;;;;12.55;2.75;;;;;;;;;;6335121;22;20023;-85
2023/01/10 12:57:21;;;;;;;13.38;2.63;;;;;;;;;;6335389;22;20023;-85
2023/01/10 12:59:48;;;;;;;15.05;2.72;;;;;;;;;;6334918;22;20098;-84
2023/01/10 13:02:16;;;;;;;13.68;2.72;;;;;;;;;;6335804;22;20027;-85
2023/01/10 13:04:50;;;;;;;14.32;2.38;;;;;;;;;;6336041;22;20544;-84
2023/01/10 13:07:17;;;;;;;18.08;2.83;;;;;;;;;;6336137;22;20015;-84
2023/01/10 13:09:44;;;;;;;11.30;2.85;;;;;;;;;;6308777;22;20027;-83
2023/01/10 13:12:19;;;;;;;19.40;3.35;;;;;;;;;;6332615;22;20021;-85
2023/01/10 13:14:49;;;;;;;21.67;3.63;;;;;;;;;;6308194;22;20120;-85
2023/01/10 13:17:16;;;;;;;21.08;2.72;;;;;;;;;;6335725;22;20019;-86
2023/01/10 13:19:42;;;;;;;16.70;3.08;;;;;;;;;;6336819;22;20027;-83
2023/01/10 13:22:26;;;;;;;15.60;2.78;;;;;;;;;;6336160;22;20035;-83
2023/01/10 13:24:57;;;;;;;13.98;2.80;;;;;;;;;;6334098;22;20027;-84
2023/01/10 13:27:26;;;;;;;9.52;1.90;;;;;;;;;;6336315;22;20016;-85
2023/01/10 13:29:53;;;;;;;15.68;2.85;;;;;;;;;;6335751;22;20033;-85
2023/01/10 13:32:23;;;;;;;19.27;3.05;;;;;;;;;;6307878;22;20023;-84
2023/01/10 13:34:50;;;;;;;14.82;2.67;;;;;;;;;;6332916;22;20024;-85
2023/01/10 13:37:23;;;;;;;15.27;2.80;;;;;;;;;;6334642;22;20094;-85
2023/01/10 13:39:57;;;;;;;16.48;2.75;;;;;;;;;;6308410;22;20024;-84
2023/01/10 13:45:27;;;;;;;14.18;2.92;;;;;;;;;;6334535;22;20063;-84
2023/01/10 13:47:54;;;;;;;14.35;2.40;;;;;;;;;;6335092;22;20019;-84
2023/01/10 13:50:35;;;;;;;21.23;2.65;;;;;;;;;;6305981;22;20530;-85
2023/01/10 13:53:01;;;;;;;13.80;2.67;;;;;;;;;;6304090;22;20404;-85
2023/01/10 13:55:31;;;;;;;18.50;2.67;;;;;;;;;;6307149;22;20027;-83
2023/01/10 13:57:58;;;;;;;23.08;2.70;;;;;;;;;;6335556;22;20031;-85
2023/01/10 14:03:43;;;;;;;22.30;3.40;;;;;;;;;;6333884;22;20730;-84
2023/01/10 14:06:27;;;;;;;13.40;2.22;;;;;;;;;;6308725;22;20049;-85
2023/01/10 14:08:58;;;;;;;23.88;4.18;;;;;;;;;;6335028;22;20834;-85
2023/01/10 14:11:25;;;;;;;;;;;;;;;;;;6307394;22;20028;-84
2023/01/10 14:13:53;;;;;;;12.25;2.85;;;;;;;;;;6332030;22;43759;-84
2023/01/10 14:16:31;;;;;;;11.00;2.42;;;;;;;;;;6334628;22;20030;-85
2023/01/10 14:18:58;;;;;;;18.33;2.80;;;;;;;;;;6334470;22;20095;-86
2023/01/10 14:21:26;;;;;;;16.02;2.88;;;;;;;;;;6334189;22;20077;-86
2023/01/10 14:23:53;;;;;;;22.35;3.03;;;;;;;;;;6332649;22;20490;-85
2023/01/10 14:26:25;;;;;;;13.85;2.72;;;;;;;;;;6333651;22;20058;-84
2023/01/10 14:28:53;;;;;;;17.50;2.88;;;;;;;;;;6335195;22;20092;-84
2023/01/10 14:31:21;;;;;;;15.55;2.20;;;;;;;;;;6305778;22;20027;-84
2023/01/10 14:33:48;;;;;;;17.67;2.90;;;;;;;;;;6333889;22;20027;-84
2023/01/10 14:36:20;;;;;;;19.20;2.97;;;;;;;;;;6333336;22;20560;-84
2023/01/10 14:38:48;;;;;;;23.20;3.55;;;;;;;;;;6335475;22;20027;-83
2023/01/10 14:41:17;;;;;;;17.98;3.50;;;;;;;;;;6332882;22;20023;-84
2023/01/10 14:43:47;;;;;;;17.50;2.80;;;;;;;;;;6335476;22;20024;-84
2023/01/10 14:46:16;;;;;;;16.17;2.95;;;;;;;;;;6335728;22;20035;-83
2023/01/10 14:48:46;;;;;;;19.85;3.13;;;;;;;;;;6335622;22;20023;-83
2023/01/10 14:51:23;;;;;;;14.88;2.78;;;;;;;;;;6335451;22;20024;-84
2023/01/10 14:53:56;;;;;;;20.60;3.72;;;;;;;;;;6335774;22;20053;-83
2023/01/10 14:56:35;;;;;;;20.30;3.13;;;;;;;;;;6336121;22;20081;-83
2023/01/10 14:59:25;;;;;;;21.85;3.35;;;;;;;;;;6337582;22;20110;-83
2023/01/10 15:02:17;;;;;;;23.33;3.17;;;;;;;;;;6307091;22;20023;-82
2023/01/10 15:05:00;;;;;;;23.75;3.42;;;;;;;;;;6320099;22;20592;-83
2023/01/10 15:07:27;;;;;;;21.65;3.17;;;;;;;;;;6335233;22;20491;-83
2023/01/10 15:09:57;;;;;;;15.23;3.15;;;;;;;;;;6334335;22;20110;-84
2023/01/10 15:12:25;;;;;;;23.08;3.72;;;;;;;;;;6335957;22;20023;-83
2023/01/10 15:14:56;;;;;;;17.88;2.95;;;;;;;;;;6335674;22;20024;-83